createdAt,value
2022-12-08T00:02:07.137Z,22.91
2022-12-08T00:05:10.955Z,22.97
2022-12-08T00:08:14.373Z,23.06
2022-12-08T00:11:20.077Z,22.97
2022-12-08T00:14:56.215Z,23.03
2022-12-08T00:17:59.374Z,23.07
2022-12-08T00:21:02.756Z,23.00
2022-12-08T00:24:06.046Z,23.03
2022-12-08T00:27:10.881Z,23.03
2022-12-08T00:30:15.804Z,23.01
2022-12-08T00:33:21.738Z,22.71
2022-12-08T00:36:25.016Z,22.51
2022-12-08T00:39:30.647Z,22.40
2022-12-08T00:42:33.765Z,22.33
2022-12-08T00:45:37.038Z,22.35
2022-12-08T00:48:42.589Z,22.29
2022-12-08T00:51:46.283Z,22.16
2022-12-08T00:54:49.452Z,22.07
2022-12-08T00:57:52.752Z,22.00
2022-12-08T01:00:55.970Z,21.81
2022-12-08T01:03:59.299Z,21.76
2022-12-08T01:07:02.514Z,21.73
2022-12-08T01:10:11.641Z,21.77
2022-12-08T01:13:14.823Z,21.72
2022-12-08T01:16:29.452Z,21.59
2022-12-08T01:19:32.847Z,21.51
2022-12-08T01:22:36.085Z,21.55
2022-12-08T01:25:39.295Z,21.58
2022-12-08T01:28:43.199Z,21.41
2022-12-08T01:31:46.421Z,21.27
2022-12-08T01:34:49.631Z,21.20
2022-12-08T01:37:52.811Z,21.27
2022-12-08T01:40:55.913Z,21.31
2022-12-08T01:44:25.012Z,21.36
2022-12-08T01:47:36.459Z,21.33
2022-12-08T01:50:41.185Z,21.32
2022-12-08T01:53:44.634Z,21.30
2022-12-08T01:57:01.382Z,21.29
2022-12-08T02:00:13.001Z,21.31
2022-12-08T02:03:22.396Z,21.16
2022-12-08T02:06:27.101Z,20.94
2022-12-08T02:09:30.343Z,21.03
2022-12-08T02:12:33.670Z,21.01
2022-12-08T02:15:59.194Z,20.99
2022-12-08T02:19:38.989Z,20.96
2022-12-08T02:22:55.711Z,20.85
2022-12-08T02:26:23.124Z,20.89
2022-12-08T02:29:50.040Z,20.88
2022-12-08T02:33:20.677Z,20.79
2022-12-08T02:36:27.913Z,20.70
2022-12-08T02:39:53.429Z,20.73
2022-12-08T02:43:04.198Z,20.77
2022-12-08T02:46:12.093Z,20.73
2022-12-08T02:49:15.292Z,20.60
2022-12-08T02:52:18.401Z,20.61
2022-12-08T02:55:29.245Z,20.51
2022-12-08T02:58:48.171Z,20.45
2022-12-08T03:02:08.346Z,20.47
2022-12-08T03:05:33.636Z,20.41
2022-12-08T03:08:58.134Z,20.49
2022-12-08T03:12:07.178Z,20.49
2022-12-08T03:15:14.291Z,20.60
2022-12-08T03:18:18.634Z,20.87
2022-12-08T03:21:23.974Z,21.00
2022-12-08T03:24:28.076Z,20.97
2022-12-08T03:27:32.529Z,21.04
2022-12-08T03:30:40.169Z,20.93
2022-12-08T03:33:46.049Z,21.07
2022-12-08T03:36:49.304Z,20.88
2022-12-08T03:39:52.485Z,20.91
2022-12-08T03:42:55.644Z,21.06
2022-12-08T03:45:58.859Z,20.90
2022-12-08T03:49:05.208Z,21.11
2022-12-08T03:52:09.659Z,20.82
2022-12-08T03:55:12.903Z,20.98
2022-12-08T03:58:16.153Z,21.22
2022-12-08T04:01:19.503Z,21.18
2022-12-08T04:04:22.716Z,21.17
2022-12-08T04:07:25.910Z,21.07
2022-12-08T04:10:29.077Z,21.07
2022-12-08T04:13:32.192Z,21.06
2022-12-08T04:16:35.396Z,20.95
2022-12-08T04:19:40.405Z,20.88
2022-12-08T04:22:43.588Z,20.81
2022-12-08T04:25:47.331Z,21.09
2022-12-08T04:28:50.617Z,21.12
2022-12-08T04:31:54.475Z,21.13
2022-12-08T04:34:57.637Z,21.11
2022-12-08T04:38:03.214Z,21.03
2022-12-08T04:41:06.426Z,20.90
2022-12-08T04:44:09.569Z,20.98
2022-12-08T04:47:12.839Z,21.20
2022-12-08T04:50:16.059Z,21.20
2022-12-08T04:53:19.265Z,21.18
2022-12-08T04:56:22.525Z,21.41
2022-12-08T04:59:25.726Z,21.39
2022-12-08T05:02:33.043Z,21.30
2022-12-08T05:05:36.267Z,21.28
2022-12-08T05:08:41.741Z,21.08
2022-12-08T05:11:48.821Z,21.13
2022-12-08T05:14:52.467Z,21.05
2022-12-08T05:17:55.748Z,21.17
2022-12-08T05:20:59.205Z,21.45
2022-12-08T05:24:02.390Z,21.43
2022-12-08T05:27:05.664Z,21.39
2022-12-08T05:30:09.163Z,21.52
2022-12-08T05:33:12.393Z,21.50
2022-12-08T05:36:16.629Z,21.40
2022-12-08T05:39:22.189Z,21.50
2022-12-08T05:42:25.415Z,21.39
2022-12-08T05:45:28.602Z,21.48
2022-12-08T05:48:31.819Z,21.54
2022-12-08T05:51:34.994Z,21.48
2022-12-08T05:54:38.152Z,21.38
2022-12-08T05:57:44.026Z,21.43
2022-12-08T06:00:48.783Z,21.58
2022-12-08T06:03:52.857Z,21.23
2022-12-08T06:06:56.016Z,21.40
2022-12-08T06:09:59.222Z,21.49
2022-12-08T06:13:02.404Z,21.51
2022-12-08T06:16:07.246Z,21.22
2022-12-08T06:19:10.649Z,21.31
2022-12-08T06:22:13.943Z,21.27
2022-12-08T06:25:17.222Z,21.36
2022-12-08T06:28:20.682Z,21.47
2022-12-08T06:31:25.703Z,21.53
2022-12-08T06:34:29.170Z,21.45
2022-12-08T06:37:32.826Z,21.44
2022-12-08T06:40:36.217Z,21.31
2022-12-08T06:43:39.828Z,21.29
2022-12-08T06:46:43.131Z,21.36
2022-12-08T06:49:46.390Z,21.46
2022-12-08T06:52:59.564Z,21.38
2022-12-08T06:56:08.589Z,21.27
2022-12-08T06:59:11.899Z,21.33
2022-12-08T07:02:15.403Z,21.35
2022-12-08T07:05:18.972Z,21.38
2022-12-08T07:08:22.574Z,21.41
2022-12-08T07:11:25.914Z,21.34
2022-12-08T07:14:29.246Z,21.48
2022-12-08T07:17:32.681Z,21.54
2022-12-08T07:20:38.172Z,21.55
2022-12-08T07:23:41.921Z,21.45
2022-12-08T07:26:45.455Z,21.48
2022-12-08T07:29:48.755Z,21.45
2022-12-08T07:32:52.049Z,21.49
2022-12-08T07:36:00.084Z,21.36
2022-12-08T07:39:03.424Z,21.42
2022-12-08T07:42:06.798Z,21.41
2022-12-08T07:45:10.462Z,21.65
2022-12-08T07:48:13.914Z,21.36
2022-12-08T07:51:17.794Z,21.16
2022-12-08T07:54:21.107Z,21.31
2022-12-08T07:57:25.401Z,21.23
2022-12-08T08:00:28.924Z,21.24
2022-12-08T08:03:32.557Z,21.24
2022-12-08T08:06:36.423Z,21.24
2022-12-08T08:09:39.629Z,21.14
2022-12-08T08:12:42.816Z,21.15
2022-12-08T08:15:46.005Z,21.13
2022-12-08T08:18:50.533Z,21.04
2022-12-08T08:21:53.671Z,21.03
2022-12-08T08:24:56.916Z,21.07
2022-12-08T08:28:00.214Z,21.05
2022-12-08T08:31:03.764Z,21.00
2022-12-08T08:34:07.091Z,20.99
2022-12-08T08:37:10.419Z,20.97
2022-12-08T08:40:13.746Z,20.95
2022-12-08T08:43:18.118Z,20.80
2022-12-08T08:46:21.411Z,20.67
2022-12-08T08:49:24.825Z,20.51
2022-12-08T08:52:28.088Z,20.52
2022-12-08T08:55:31.293Z,20.48
2022-12-08T08:58:34.452Z,20.28
2022-12-08T09:01:40.009Z,20.33
2022-12-08T09:04:43.399Z,20.31
2022-12-08T09:07:46.629Z,20.06
2022-12-08T09:10:52.206Z,19.98
2022-12-08T09:13:58.210Z,19.82
2022-12-08T09:17:01.437Z,19.79
2022-12-08T09:20:06.541Z,19.87
2022-12-08T09:23:11.998Z,19.98
2022-12-08T09:26:17.491Z,19.96
2022-12-08T09:29:20.700Z,19.77
2022-12-08T09:32:24.154Z,19.73
2022-12-08T09:35:27.328Z,19.78
2022-12-08T09:38:30.554Z,19.90
2022-12-08T09:41:39.297Z,19.77
2022-12-08T09:44:56.748Z,19.63
2022-12-08T09:48:25.702Z,19.57
2022-12-08T09:51:32.830Z,19.56
2022-12-08T09:54:36.907Z,19.60
2022-12-08T09:57:40.071Z,19.60
2022-12-08T10:00:43.262Z,19.49
2022-12-08T10:03:46.540Z,19.58
2022-12-08T10:07:08.631Z,19.66
2022-12-08T10:10:17.872Z,19.52
2022-12-08T10:13:35.960Z,19.57
2022-12-08T10:16:42.250Z,19.55
2022-12-08T10:19:46.371Z,19.52
2022-12-08T10:22:54.034Z,19.51
2022-12-08T10:26:21.527Z,19.50
2022-12-08T10:29:24.727Z,19.42
2022-12-08T10:32:35.608Z,19.30
2022-12-08T10:35:50.952Z,19.19
2022-12-08T10:38:54.105Z,19.09
2022-12-08T10:42:10.032Z,19.17
2022-12-08T10:45:40.820Z,19.25
2022-12-08T10:49:07.268Z,19.41
2022-12-08T10:52:25.705Z,19.58
2022-12-08T10:55:30.503Z,19.77
2022-12-08T10:58:39.158Z,19.71
2022-12-08T11:01:43.433Z,19.59
2022-12-08T11:04:47.135Z,19.55
2022-12-08T11:07:57.243Z,19.62
2022-12-08T11:11:01.839Z,19.78
2022-12-08T11:14:09.148Z,19.57
2022-12-08T11:17:21.072Z,19.60
2022-12-08T11:20:24.650Z,19.58
2022-12-08T11:23:30.084Z,19.59
2022-12-08T11:26:34.828Z,19.45
2022-12-08T11:29:38.222Z,19.35
2022-12-08T11:32:43.590Z,19.42
2022-12-08T11:35:50.949Z,19.39
2022-12-08T11:38:58.141Z,19.23
2022-12-08T11:42:04.259Z,19.18
2022-12-08T11:45:13.531Z,19.33
2022-12-08T11:48:25.863Z,19.41
2022-12-08T11:51:33.256Z,19.68
2022-12-08T11:54:43.319Z,19.67
2022-12-08T11:57:47.068Z,19.62
2022-12-08T12:00:50.599Z,19.27
2022-12-08T12:04:33.775Z,19.05
2022-12-08T12:07:58.617Z,19.03
2022-12-08T12:11:17.293Z,19.04
2022-12-08T12:14:38.200Z,19.00
2022-12-08T12:17:41.303Z,19.00
2022-12-08T12:21:00.793Z,19.11
2022-12-08T12:24:10.444Z,19.15
2022-12-08T12:27:16.672Z,18.93
2022-12-08T12:30:28.513Z,19.15
2022-12-08T12:33:32.306Z,19.03
2022-12-08T12:36:48.876Z,19.20
2022-12-08T12:40:03.743Z,19.11
2022-12-08T12:43:09.531Z,18.97
2022-12-08T12:46:26.178Z,18.87
2022-12-08T12:49:49.890Z,18.78
2022-12-08T12:52:53.343Z,18.90
2022-12-08T12:56:01.934Z,18.88
2022-12-08T12:59:42.710Z,18.78
2022-12-08T13:02:45.913Z,18.80
2022-12-08T13:05:54.088Z,18.76
2022-12-08T13:08:57.424Z,18.69
2022-12-08T13:12:08.542Z,18.52
2022-12-08T13:15:21.451Z,18.63
2022-12-08T13:18:36.637Z,18.66
2022-12-08T13:21:40.561Z,18.55
2022-12-08T13:24:44.049Z,18.44
2022-12-08T13:27:54.957Z,18.59
2022-12-08T13:31:00.363Z,18.70
2022-12-08T13:34:28.962Z,18.73
2022-12-08T13:37:55.249Z,18.91
2022-12-08T13:40:59.814Z,19.17
2022-12-08T13:47:41.465Z,19.24
2022-12-08T13:57:59.348Z,19.75
2022-12-08T14:01:18.470Z,19.83
2022-12-08T14:04:53.966Z,19.84
2022-12-08T14:07:49.361Z,19.86
2022-12-08T14:10:58.550Z,19.97
2022-12-08T14:14:14.519Z,19.97
2022-12-08T14:17:23.534Z,20.17
2022-12-08T14:20:33.824Z,20.25
2022-12-08T14:23:46.100Z,20.69
2022-12-08T14:26:52.512Z,20.82
2022-12-08T14:30:01.719Z,20.97
2022-12-08T14:33:05.734Z,20.94
2022-12-08T14:36:10.788Z,21.06
2022-12-08T14:39:14.027Z,21.43
2022-12-08T14:42:28.211Z,21.38
2022-12-08T14:45:32.010Z,21.19
2022-12-08T14:48:37.236Z,21.20
2022-12-08T14:51:41.211Z,21.57
2022-12-08T14:54:44.560Z,21.80
2022-12-08T14:57:49.585Z,21.81
2022-12-08T15:00:53.440Z,21.88
2022-12-08T15:04:19.977Z,21.78
2022-12-08T15:07:28.689Z,21.94
2022-12-08T15:10:33.878Z,22.06
2022-12-08T15:13:36.989Z,21.95
2022-12-08T15:16:45.071Z,22.29
2022-12-08T15:20:00.134Z,22.31
2022-12-08T15:23:05.138Z,22.42
2022-12-08T15:26:08.255Z,22.36
2022-12-08T15:29:30.022Z,22.41
2022-12-08T15:32:33.376Z,22.49
2022-12-08T15:35:40.742Z,22.49
2022-12-08T15:38:47.258Z,22.50
2022-12-08T15:41:50.431Z,22.71
2022-12-08T15:44:54.132Z,22.86
2022-12-08T15:47:57.990Z,23.12
2022-12-08T15:51:01.387Z,22.96
2022-12-08T15:54:04.732Z,23.03
2022-12-08T16:00:52.227Z,23.51
2022-12-08T16:07:28.413Z,23.29
2022-12-08T16:10:59.058Z,23.37
2022-12-08T16:13:58.266Z,23.53
2022-12-08T16:17:08.409Z,23.45
2022-12-08T16:20:17.490Z,23.54
2022-12-08T16:23:41.615Z,23.34
2022-12-08T16:27:51.223Z,23.77
2022-12-08T16:30:10.032Z,23.91
2022-12-08T16:33:13.589Z,24.27
2022-12-08T16:36:16.799Z,24.27
2022-12-08T16:39:23.000Z,24.14
2022-12-08T16:42:28.799Z,24.30
2022-12-08T16:45:32.069Z,24.19
2022-12-08T16:48:35.258Z,24.22
2022-12-08T16:51:38.456Z,24.35
2022-12-08T16:54:41.635Z,24.55
2022-12-08T16:57:48.838Z,24.77
2022-12-08T17:00:52.306Z,24.88
2022-12-08T17:04:29.054Z,24.95
2022-12-08T17:07:18.731Z,25.05
2022-12-08T17:10:28.052Z,24.75
2022-12-08T17:13:31.271Z,24.84
2022-12-08T17:16:34.597Z,25.05
2022-12-08T17:19:38.241Z,25.26
2022-12-08T17:22:41.740Z,24.99
2022-12-08T17:26:03.027Z,25.51
2022-12-08T17:29:06.401Z,25.51
2022-12-08T17:32:11.730Z,25.49
2022-12-08T17:35:15.436Z,25.84
2022-12-08T17:38:19.594Z,25.89
2022-12-08T17:41:22.888Z,25.70
2022-12-08T17:44:26.097Z,25.56
2022-12-08T17:47:29.301Z,26.01
2022-12-08T17:50:32.472Z,25.68
2022-12-08T17:53:37.546Z,26.05
2022-12-08T17:56:41.919Z,26.03
2022-12-08T17:59:45.183Z,25.91
2022-12-08T18:02:48.387Z,26.31
2022-12-08T18:05:51.686Z,26.60
2022-12-08T18:08:55.067Z,26.60
2022-12-08T18:11:58.466Z,26.46
2022-12-08T18:15:01.652Z,26.65
2022-12-08T18:18:05.135Z,26.59
2022-12-08T18:21:09.348Z,26.53
2022-12-08T18:24:21.591Z,26.72
2022-12-08T18:27:25.035Z,26.85
2022-12-08T18:30:28.239Z,26.90
2022-12-08T18:33:31.477Z,26.97
2022-12-08T18:36:34.978Z,26.77
2022-12-08T18:39:38.181Z,26.91
2022-12-08T18:42:41.558Z,26.67
2022-12-08T18:45:44.779Z,26.72
2022-12-08T18:48:49.596Z,26.80
2022-12-08T18:51:52.762Z,26.84
2022-12-08T18:55:06.336Z,26.57
2022-12-08T18:58:11.532Z,26.68
2022-12-08T19:01:17.886Z,26.97
2022-12-08T19:04:28.520Z,27.26
2022-12-08T19:07:32.607Z,27.12
2022-12-08T19:10:37.553Z,26.95
2022-12-08T19:13:40.732Z,27.05
2022-12-08T19:16:44.008Z,27.23
2022-12-08T19:19:47.187Z,27.02
2022-12-08T19:22:52.397Z,27.27
2022-12-08T19:25:55.713Z,27.75
2022-12-08T19:28:59.272Z,27.81
2022-12-08T19:32:02.548Z,27.31
2022-12-08T19:35:05.867Z,27.16
2022-12-08T19:38:09.012Z,27.45
2022-12-08T19:41:18.749Z,27.63
2022-12-08T19:44:27.122Z,27.60
2022-12-08T19:47:30.374Z,27.83
2022-12-08T19:50:33.742Z,27.65
2022-12-08T19:53:37.485Z,27.71
2022-12-08T19:56:40.667Z,27.69
2022-12-08T19:59:43.825Z,27.28
2022-12-08T20:02:47.463Z,27.67
2022-12-08T20:05:52.529Z,27.78
2022-12-08T20:08:55.847Z,27.32
2022-12-08T20:11:59.193Z,27.17
2022-12-08T20:15:02.384Z,27.25
2022-12-08T20:18:05.883Z,27.10
2022-12-08T20:21:09.727Z,27.15
2022-12-08T20:24:14.025Z,27.52
2022-12-08T20:27:17.215Z,27.26
2022-12-08T20:30:22.262Z,27.29
2022-12-08T20:33:25.458Z,27.49
2022-12-08T20:36:28.801Z,27.67
2022-12-08T20:39:31.927Z,28.16
2022-12-08T20:42:35.256Z,28.42
2022-12-08T20:45:38.688Z,28.34
2022-12-08T20:48:42.898Z,28.98
2022-12-08T20:51:46.142Z,29.00
2022-12-08T20:54:49.356Z,28.50
2022-12-08T20:57:53.722Z,27.84
2022-12-08T21:00:56.936Z,27.76
2022-12-08T21:04:00.402Z,27.81
2022-12-08T21:07:03.986Z,27.60
2022-12-08T21:10:08.285Z,27.29
2022-12-08T21:13:11.966Z,27.03
2022-12-08T21:16:16.157Z,26.97
2022-12-08T21:19:20.849Z,27.16
2022-12-08T21:22:24.163Z,27.29
2022-12-08T21:25:27.910Z,27.05
2022-12-08T21:28:31.267Z,27.17
2022-12-08T21:31:34.624Z,26.97
2022-12-08T21:34:37.979Z,27.21
2022-12-08T21:37:41.671Z,27.08
2022-12-08T21:40:44.882Z,26.91
2022-12-08T21:43:48.192Z,26.76
2022-12-08T21:46:51.683Z,26.71
2022-12-08T21:49:55.103Z,26.70
2022-12-08T21:52:58.379Z,27.21
2022-12-08T21:56:01.765Z,28.05
2022-12-08T21:59:05.187Z,28.15
2022-12-08T22:02:08.476Z,26.97
2022-12-08T22:05:12.318Z,26.99
2022-12-08T22:08:15.827Z,26.80
2022-12-08T22:11:19.403Z,26.70
2022-12-08T22:14:26.006Z,26.80
2022-12-08T22:17:29.945Z,26.93
2022-12-08T22:20:33.161Z,26.29
2022-12-08T22:23:39.293Z,26.08
2022-12-08T22:26:42.813Z,25.88
2022-12-08T22:29:48.742Z,25.97
2022-12-08T22:32:52.275Z,25.53
2022-12-08T22:36:10.770Z,25.51
2022-12-08T22:39:14.497Z,25.45
2022-12-08T22:42:17.700Z,25.38
2022-12-08T22:45:20.868Z,25.29
2022-12-08T22:48:26.329Z,25.36
2022-12-08T22:51:29.469Z,25.45
2022-12-08T22:54:33.056Z,25.43
2022-12-08T22:57:36.532Z,25.12
2022-12-08T23:00:40.118Z,25.05
2022-12-08T23:03:43.428Z,25.00
2022-12-08T23:06:46.843Z,25.00
2022-12-08T23:09:51.250Z,24.89
2022-12-08T23:12:58.006Z,24.65
2022-12-08T23:16:06.617Z,24.48
2022-12-08T23:19:10.332Z,24.53
2022-12-08T23:22:13.558Z,24.79
2022-12-08T23:25:16.813Z,24.71
2022-12-08T23:28:20.179Z,24.67
2022-12-08T23:31:24.460Z,24.57
2022-12-08T23:34:27.716Z,24.38
2022-12-08T23:37:30.973Z,24.26
2022-12-08T23:40:34.240Z,24.13
2022-12-08T23:43:40.164Z,24.03
2022-12-08T23:46:43.690Z,24.00
2022-12-08T23:49:49.269Z,24.11
2022-12-08T23:52:52.486Z,24.18
2022-12-08T23:56:03.177Z,23.75
2022-12-08T23:59:06.510Z,23.47
